sensor_id;sensor_type;location;lat;lon;timestamp;temperature;humidity
1063;DHT22;520;50.932;6.962;2022-07-06T00:01:53;19.30;64.00
1063;DHT22;520;50.932;6.962;2022-07-06T00:04:20;19.20;63.80
1063;DHT22;520;50.932;6.962;2022-07-06T00:06:47;19.30;63.90
1063;DHT22;520;50.932;6.962;2022-07-06T00:09:14;19.40;63.60
1063;DHT22;520;50.932;6.962;2022-07-06T00:11:41;19.30;63.20
1063;DHT22;520;50.932;6.962;2022-07-06T00:14:07;19.30;63.50
1063;DHT22;520;50.932;6.962;2022-07-06T00:16:34;19.30;63.70
1063;DHT22;520;50.932;6.962;2022-07-06T00:19:01;19.20;64.00
1063;DHT22;520;50.932;6.962;2022-07-06T00:21:27;19.30;64.40
1063;DHT22;520;50.932;6.962;2022-07-06T00:23:54;19.30;64.40
1063;DHT22;520;50.932;6.962;2022-07-06T00:26:21;19.40;64.60
1063;DHT22;520;50.932;6.962;2022-07-06T00:28:47;19.30;64.80
1063;DHT22;520;50.932;6.962;2022-07-06T00:31:14;19.20;65.20
1063;DHT22;520;50.932;6.962;2022-07-06T00:33:41;19.10;65.80
1063;DHT22;520;50.932;6.962;2022-07-06T00:36:07;18.90;65.90
1063;DHT22;520;50.932;6.962;2022-07-06T00:38:34;18.80;66.10
1063;DHT22;520;50.932;6.962;2022-07-06T00:41:01;18.80;66.30
1063;DHT22;520;50.932;6.962;2022-07-06T00:43:27;18.80;66.20
1063;DHT22;520;50.932;6.962;2022-07-06T00:45:54;18.70;66.50
1063;DHT22;520;50.932;6.962;2022-07-06T00:48:21;18.70;66.80
1063;DHT22;520;50.932;6.962;2022-07-06T00:50:48;18.70;68.00
1063;DHT22;520;50.932;6.962;2022-07-06T00:53:14;18.70;67.30
1063;DHT22;520;50.932;6.962;2022-07-06T00:55:41;18.70;67.40
1063;DHT22;520;50.932;6.962;2022-07-06T00:58:09;18.80;67.30
1063;DHT22;520;50.932;6.962;2022-07-06T01:00:36;18.90;67.30
1063;DHT22;520;50.932;6.962;2022-07-06T01:03:03;19.00;66.40
1063;DHT22;520;50.932;6.962;2022-07-06T01:05:30;18.90;66.70
1063;DHT22;520;50.932;6.962;2022-07-06T01:07:57;18.70;67.50
1063;DHT22;520;50.932;6.962;2022-07-06T01:10:23;18.60;68.00
1063;DHT22;520;50.932;6.962;2022-07-06T01:12:50;18.60;68.30
1063;DHT22;520;50.932;6.962;2022-07-06T01:15:20;18.60;68.50
1063;DHT22;520;50.932;6.962;2022-07-06T01:17:47;18.60;68.60
1063;DHT22;520;50.932;6.962;2022-07-06T01:22:46;18.40;69.30
1063;DHT22;520;50.932;6.962;2022-07-06T01:25:14;18.30;69.80
1063;DHT22;520;50.932;6.962;2022-07-06T01:27:42;18.20;70.40
1063;DHT22;520;50.932;6.962;2022-07-06T01:30:18;18.20;70.70
1063;DHT22;520;50.932;6.962;2022-07-06T01:32:45;18.20;71.00
1063;DHT22;520;50.932;6.962;2022-07-06T01:35:14;18.20;70.90
1063;DHT22;520;50.932;6.962;2022-07-06T01:37:41;18.20;71.20
1063;DHT22;520;50.932;6.962;2022-07-06T01:40:10;18.20;71.40
1063;DHT22;520;50.932;6.962;2022-07-06T01:42:38;18.10;71.30
1063;DHT22;520;50.932;6.962;2022-07-06T01:45:06;18.10;71.50
1063;DHT22;520;50.932;6.962;2022-07-06T01:47:33;18.10;71.70
1063;DHT22;520;50.932;6.962;2022-07-06T01:50:01;18.10;72.20
1063;DHT22;520;50.932;6.962;2022-07-06T01:52:28;18.00;72.50
1063;DHT22;520;50.932;6.962;2022-07-06T01:54:58;17.90;73.30
1063;DHT22;520;50.932;6.962;2022-07-06T01:57:24;17.90;73.50
1063;DHT22;520;50.932;6.962;2022-07-06T01:59:51;17.80;73.90
1063;DHT22;520;50.932;6.962;2022-07-06T02:02:18;17.90;73.80
1063;DHT22;520;50.932;6.962;2022-07-06T02:04:45;18.00;73.60
1063;DHT22;520;50.932;6.962;2022-07-06T02:07:11;18.00;73.70
1063;DHT22;520;50.932;6.962;2022-07-06T02:09:38;18.00;73.90
1063;DHT22;520;50.932;6.962;2022-07-06T02:12:05;17.80;74.10
1063;DHT22;520;50.932;6.962;2022-07-06T02:14:31;17.80;74.70
1063;DHT22;520;50.932;6.962;2022-07-06T02:16:58;17.70;75.10
1063;DHT22;520;50.932;6.962;2022-07-06T02:19:25;17.70;75.50
1063;DHT22;520;50.932;6.962;2022-07-06T02:21:51;17.60;75.70
1063;DHT22;520;50.932;6.962;2022-07-06T02:24:18;17.60;76.20
1063;DHT22;520;50.932;6.962;2022-07-06T02:26:44;17.60;76.70
1063;DHT22;520;50.932;6.962;2022-07-06T02:29:11;17.60;76.70
1063;DHT22;520;50.932;6.962;2022-07-06T02:31:38;17.50;76.90
1063;DHT22;520;50.932;6.962;2022-07-06T02:34:04;17.50;77.20
1063;DHT22;520;50.932;6.962;2022-07-06T02:36:31;17.50;77.50
1063;DHT22;520;50.932;6.962;2022-07-06T02:38:58;17.40;78.00
1063;DHT22;520;50.932;6.962;2022-07-06T02:41:24;17.40;78.50
1063;DHT22;520;50.932;6.962;2022-07-06T02:43:51;17.40;78.70
1063;DHT22;520;50.932;6.962;2022-07-06T02:46:18;17.40;78.90
1063;DHT22;520;50.932;6.962;2022-07-06T02:48:44;17.40;79.20
1063;DHT22;520;50.932;6.962;2022-07-06T02:51:11;17.40;79.30
1063;DHT22;520;50.932;6.962;2022-07-06T02:53:39;17.40;79.50
1063;DHT22;520;50.932;6.962;2022-07-06T02:56:06;17.40;79.40
1063;DHT22;520;50.932;6.962;2022-07-06T02:58:32;17.30;79.70
1063;DHT22;520;50.932;6.962;2022-07-06T03:00:59;17.30;80.40
1063;DHT22;520;50.932;6.962;2022-07-06T03:03:26;17.30;80.60
1063;DHT22;520;50.932;6.962;2022-07-06T03:05:52;17.30;80.90
1063;DHT22;520;50.932;6.962;2022-07-06T03:08:19;17.20;81.20
1063;DHT22;520;50.932;6.962;2022-07-06T03:10:46;17.20;81.40
1063;DHT22;520;50.932;6.962;2022-07-06T03:13:13;17.20;81.60
1063;DHT22;520;50.932;6.962;2022-07-06T03:15:39;17.20;81.70
1063;DHT22;520;50.932;6.962;2022-07-06T03:18:06;17.20;81.70
1063;DHT22;520;50.932;6.962;2022-07-06T03:20:33;17.20;82.10
1063;DHT22;520;50.932;6.962;2022-07-06T03:22:59;17.20;82.30
1063;DHT22;520;50.932;6.962;2022-07-06T03:25:26;17.30;82.40
1063;DHT22;520;50.932;6.962;2022-07-06T03:27:53;17.30;82.50
1063;DHT22;520;50.932;6.962;2022-07-06T03:30:19;17.20;82.60
1063;DHT22;520;50.932;6.962;2022-07-06T03:32:46;17.10;83.10
1063;DHT22;520;50.932;6.962;2022-07-06T03:35:13;17.10;83.50
1063;DHT22;520;50.932;6.962;2022-07-06T03:37:40;17.10;83.70
1063;DHT22;520;50.932;6.962;2022-07-06T03:40:07;17.20;83.70
1063;DHT22;520;50.932;6.962;2022-07-06T03:42:33;17.20;83.80
1063;DHT22;520;50.932;6.962;2022-07-06T03:45:01;17.10;83.80
1063;DHT22;520;50.932;6.962;2022-07-06T03:47:28;17.00;84.60
1063;DHT22;520;50.932;6.962;2022-07-06T03:49:54;17.00;84.90
1063;DHT22;520;50.932;6.962;2022-07-06T03:52:21;16.90;85.20
1063;DHT22;520;50.932;6.962;2022-07-06T03:54:48;16.90;85.40
1063;DHT22;520;50.932;6.962;2022-07-06T03:57:14;16.90;85.80
1063;DHT22;520;50.932;6.962;2022-07-06T03:59:41;16.90;86.00
1063;DHT22;520;50.932;6.962;2022-07-06T04:02:08;16.90;86.10
1063;DHT22;520;50.932;6.962;2022-07-06T04:04:34;16.90;86.20
1063;DHT22;520;50.932;6.962;2022-07-06T04:07:01;16.80;86.40
1063;DHT22;520;50.932;6.962;2022-07-06T04:09:28;16.80;87.00
1063;DHT22;520;50.932;6.962;2022-07-06T04:11:54;16.70;87.20
1063;DHT22;520;50.932;6.962;2022-07-06T04:14:21;16.70;87.60
1063;DHT22;520;50.932;6.962;2022-07-06T04:16:48;16.80;87.60
1063;DHT22;520;50.932;6.962;2022-07-06T04:19:15;16.80;87.70
1063;DHT22;520;50.932;6.962;2022-07-06T04:21:41;16.80;88.20
1063;DHT22;520;50.932;6.962;2022-07-06T04:24:08;16.80;88.00
1063;DHT22;520;50.932;6.962;2022-07-06T04:26:35;16.80;87.80
1063;DHT22;520;50.932;6.962;2022-07-06T04:29:01;16.80;88.10
1063;DHT22;520;50.932;6.962;2022-07-06T04:31:28;16.90;88.20
1063;DHT22;520;50.932;6.962;2022-07-06T04:33:55;16.90;88.40
1063;DHT22;520;50.932;6.962;2022-07-06T04:36:21;16.80;88.20
1063;DHT22;520;50.932;6.962;2022-07-06T04:38:48;16.80;88.50
1063;DHT22;520;50.932;6.962;2022-07-06T04:41:15;16.80;88.60
1063;DHT22;520;50.932;6.962;2022-07-06T04:43:41;16.80;88.70
1063;DHT22;520;50.932;6.962;2022-07-06T04:46:10;16.90;88.60
1063;DHT22;520;50.932;6.962;2022-07-06T04:48:37;16.90;88.50
1063;DHT22;520;50.932;6.962;2022-07-06T04:51:05;16.90;88.70
1063;DHT22;520;50.932;6.962;2022-07-06T04:53:32;16.80;89.00
1063;DHT22;520;50.932;6.962;2022-07-06T04:55:59;16.90;89.40
1063;DHT22;520;50.932;6.962;2022-07-06T04:58:25;16.90;89.50
1063;DHT22;520;50.932;6.962;2022-07-06T05:00:52;16.90;89.50
1063;DHT22;520;50.932;6.962;2022-07-06T05:03:20;17.00;89.60
1063;DHT22;520;50.932;6.962;2022-07-06T05:05:47;17.00;89.40
1063;DHT22;520;50.932;6.962;2022-07-06T05:08:13;17.00;89.40
1063;DHT22;520;50.932;6.962;2022-07-06T05:10:40;17.00;89.40
1063;DHT22;520;50.932;6.962;2022-07-06T05:13:07;17.00;89.50
1063;DHT22;520;50.932;6.962;2022-07-06T05:15:33;17.00;89.90
1063;DHT22;520;50.932;6.962;2022-07-06T05:18:00;16.90;90.00
1063;DHT22;520;50.932;6.962;2022-07-06T05:20:27;17.00;90.10
1063;DHT22;520;50.932;6.962;2022-07-06T05:22:54;17.00;90.10
1063;DHT22;520;50.932;6.962;2022-07-06T05:25:20;16.90;90.30
1063;DHT22;520;50.932;6.962;2022-07-06T05:27:47;16.90;90.40
1063;DHT22;520;50.932;6.962;2022-07-06T05:30:14;17.00;90.40
1063;DHT22;520;50.932;6.962;2022-07-06T05:32:42;17.00;90.40
1063;DHT22;520;50.932;6.962;2022-07-06T05:35:08;17.00;90.50
1063;DHT22;520;50.932;6.962;2022-07-06T05:37:55;17.20;90.40
1063;DHT22;520;50.932;6.962;2022-07-06T05:40:22;17.20;90.10
1063;DHT22;520;50.932;6.962;2022-07-06T05:42:49;17.40;90.00
1063;DHT22;520;50.932;6.962;2022-07-06T05:45:15;17.50;89.40
1063;DHT22;520;50.932;6.962;2022-07-06T05:47:42;17.70;89.20
1063;DHT22;520;50.932;6.962;2022-07-06T05:50:27;17.70;88.30
1063;DHT22;520;50.932;6.962;2022-07-06T05:53:03;17.70;88.20
1063;DHT22;520;50.932;6.962;2022-07-06T05:55:38;17.60;88.60
1063;DHT22;520;50.932;6.962;2022-07-06T05:58:05;17.60;88.70
1063;DHT22;520;50.932;6.962;2022-07-06T06:00:31;17.60;89.30
1063;DHT22;520;50.932;6.962;2022-07-06T06:02:59;17.70;89.00
1063;DHT22;520;50.932;6.962;2022-07-06T06:05:26;17.80;88.50
1063;DHT22;520;50.932;6.962;2022-07-06T06:07:53;18.00;87.70
1063;DHT22;520;50.932;6.962;2022-07-06T06:10:20;18.00;87.60
1063;DHT22;520;50.932;6.962;2022-07-06T06:12:48;18.10;87.50
1063;DHT22;520;50.932;6.962;2022-07-06T06:15:15;18.40;86.50
1063;DHT22;520;50.932;6.962;2022-07-06T06:17:42;18.70;85.00
1063;DHT22;520;50.932;6.962;2022-07-06T06:20:11;18.70;84.20
1063;DHT22;520;50.932;6.962;2022-07-06T06:22:47;18.90;83.60
1063;DHT22;520;50.932;6.962;2022-07-06T06:25:19;18.90;82.50
1063;DHT22;520;50.932;6.962;2022-07-06T06:27:46;18.70;83.50
1063;DHT22;520;50.932;6.962;2022-07-06T06:30:13;19.10;82.60
1063;DHT22;520;50.932;6.962;2022-07-06T06:32:40;18.90;82.60
1063;DHT22;520;50.932;6.962;2022-07-06T06:35:10;18.70;83.10
1063;DHT22;520;50.932;6.962;2022-07-06T06:37:37;18.60;84.20
1063;DHT22;520;50.932;6.962;2022-07-06T06:40:05;18.60;84.10
1063;DHT22;520;50.932;6.962;2022-07-06T06:42:34;18.90;84.00
1063;DHT22;520;50.932;6.962;2022-07-06T06:45:01;18.90;82.90
1063;DHT22;520;50.932;6.962;2022-07-06T06:47:28;19.00;82.80
1063;DHT22;520;50.932;6.962;2022-07-06T06:49:54;19.10;81.80
1063;DHT22;520;50.932;6.962;2022-07-06T06:52:21;19.00;82.00
1063;DHT22;520;50.932;6.962;2022-07-06T06:55:06;19.30;81.40
1063;DHT22;520;50.932;6.962;2022-07-06T06:57:33;19.10;80.30
1063;DHT22;520;50.932;6.962;2022-07-06T07:00:01;19.00;80.60
1063;DHT22;520;50.932;6.962;2022-07-06T07:02:28;19.20;80.30
1063;DHT22;520;50.932;6.962;2022-07-06T07:04:55;19.40;79.10
1063;DHT22;520;50.932;6.962;2022-07-06T07:07:21;19.60;77.90
1063;DHT22;520;50.932;6.962;2022-07-06T07:09:48;19.50;77.90
1063;DHT22;520;50.932;6.962;2022-07-06T07:12:15;19.20;77.90
1063;DHT22;520;50.932;6.962;2022-07-06T07:14:44;19.30;78.70
1063;DHT22;520;50.932;6.962;2022-07-06T07:17:10;19.40;78.20
1063;DHT22;520;50.932;6.962;2022-07-06T07:19:38;19.70;77.80
1063;DHT22;520;50.932;6.962;2022-07-06T07:22:05;19.90;76.90
1063;DHT22;520;50.932;6.962;2022-07-06T07:24:32;20.30;75.30
1063;DHT22;520;50.932;6.962;2022-07-06T07:26:59;20.10;73.90
1063;DHT22;520;50.932;6.962;2022-07-06T07:29:25;20.00;73.70
1063;DHT22;520;50.932;6.962;2022-07-06T07:31:52;20.10;73.00
1063;DHT22;520;50.932;6.962;2022-07-06T07:34:19;20.20;72.50
1063;DHT22;520;50.932;6.962;2022-07-06T07:36:45;20.20;72.00
1063;DHT22;520;50.932;6.962;2022-07-06T07:39:12;20.50;70.50
1063;DHT22;520;50.932;6.962;2022-07-06T07:41:39;20.40;70.10
1063;DHT22;520;50.932;6.962;2022-07-06T07:44:05;20.40;70.80
1063;DHT22;520;50.932;6.962;2022-07-06T07:46:32;20.60;69.50
1063;DHT22;520;50.932;6.962;2022-07-06T07:48:59;20.60;68.20
1063;DHT22;520;50.932;6.962;2022-07-06T07:51:25;20.10;69.50
1063;DHT22;520;50.932;6.962;2022-07-06T07:53:52;20.00;68.70
1063;DHT22;520;50.932;6.962;2022-07-06T07:56:19;19.70;69.20
1063;DHT22;520;50.932;6.962;2022-07-06T07:58:46;19.90;69.80
1063;DHT22;520;50.932;6.962;2022-07-06T08:01:17;20.30;68.70
1063;DHT22;520;50.932;6.962;2022-07-06T08:03:43;20.50;66.60
1063;DHT22;520;50.932;6.962;2022-07-06T08:06:10;20.40;66.50
1063;DHT22;520;50.932;6.962;2022-07-06T08:08:37;20.60;66.00
1063;DHT22;520;50.932;6.962;2022-07-06T08:11:04;20.80;66.70
1063;DHT22;520;50.932;6.962;2022-07-06T08:13:46;20.60;66.00
1063;DHT22;520;50.932;6.962;2022-07-06T08:16:13;20.30;65.90
1063;DHT22;520;50.932;6.962;2022-07-06T08:18:39;20.10;66.40
1063;DHT22;520;50.932;6.962;2022-07-06T08:21:06;20.80;65.30
1063;DHT22;520;50.932;6.962;2022-07-06T08:23:51;21.00;64.10
1063;DHT22;520;50.932;6.962;2022-07-06T08:26:18;21.10;64.00
1063;DHT22;520;50.932;6.962;2022-07-06T08:28:45;21.10;62.50
1063;DHT22;520;50.932;6.962;2022-07-06T08:31:12;20.80;63.20
1063;DHT22;520;50.932;6.962;2022-07-06T08:33:58;20.80;64.10
1063;DHT22;520;50.932;6.962;2022-07-06T08:36:25;21.20;64.80
1063;DHT22;520;50.932;6.962;2022-07-06T08:38:52;21.40;63.50
1063;DHT22;520;50.932;6.962;2022-07-06T08:41:23;21.10;63.80
1063;DHT22;520;50.932;6.962;2022-07-06T08:43:51;20.90;64.10
1063;DHT22;520;50.932;6.962;2022-07-06T08:46:24;20.70;64.60
1063;DHT22;520;50.932;6.962;2022-07-06T08:48:51;20.40;65.10
1063;DHT22;520;50.932;6.962;2022-07-06T08:51:18;20.20;65.70
1063;DHT22;520;50.932;6.962;2022-07-06T08:53:50;20.10;65.30
1063;DHT22;520;50.932;6.962;2022-07-06T08:56:18;20.10;64.20
1063;DHT22;520;50.932;6.962;2022-07-06T08:58:45;20.20;64.40
1063;DHT22;520;50.932;6.962;2022-07-06T09:01:12;20.20;65.30
1063;DHT22;520;50.932;6.962;2022-07-06T09:03:40;20.10;66.10
1063;DHT22;520;50.932;6.962;2022-07-06T09:06:07;20.10;65.80
1063;DHT22;520;50.932;6.962;2022-07-06T09:08:34;20.20;66.00
1063;DHT22;520;50.932;6.962;2022-07-06T09:11:04;20.40;66.00
1063;DHT22;520;50.932;6.962;2022-07-06T09:13:31;20.40;65.80
1063;DHT22;520;50.932;6.962;2022-07-06T09:16:09;20.40;64.60
1063;DHT22;520;50.932;6.962;2022-07-06T09:18:57;20.30;64.70
1063;DHT22;520;50.932;6.962;2022-07-06T09:21:29;20.30;64.80
1063;DHT22;520;50.932;6.962;2022-07-06T09:24:00;20.20;65.00
1063;DHT22;520;50.932;6.962;2022-07-06T09:26:28;20.10;65.90
1063;DHT22;520;50.932;6.962;2022-07-06T09:28:57;20.20;66.90
1063;DHT22;520;50.932;6.962;2022-07-06T09:31:23;20.30;66.00
1063;DHT22;520;50.932;6.962;2022-07-06T09:33:58;20.30;66.50
1063;DHT22;520;50.932;6.962;2022-07-06T09:36:41;20.30;66.90
1063;DHT22;520;50.932;6.962;2022-07-06T09:39:27;20.20;66.70
1063;DHT22;520;50.932;6.962;2022-07-06T09:41:57;20.10;66.00
1063;DHT22;520;50.932;6.962;2022-07-06T09:44:30;20.10;66.10
1063;DHT22;520;50.932;6.962;2022-07-06T09:47:01;20.20;65.10
1063;DHT22;520;50.932;6.962;2022-07-06T09:49:29;20.10;65.40
1063;DHT22;520;50.932;6.962;2022-07-06T09:51:57;20.10;66.10
1063;DHT22;520;50.932;6.962;2022-07-06T09:54:25;20.10;66.40
1063;DHT22;520;50.932;6.962;2022-07-06T09:56:55;20.30;65.00
1063;DHT22;520;50.932;6.962;2022-07-06T09:59:27;20.30;64.40
1063;DHT22;520;50.932;6.962;2022-07-06T10:01:56;20.50;63.90
1063;DHT22;520;50.932;6.962;2022-07-06T10:04:25;21.40;62.40
1063;DHT22;520;50.932;6.962;2022-07-06T10:06:54;21.50;60.80
1063;DHT22;520;50.932;6.962;2022-07-06T10:09:23;21.40;60.80
1063;DHT22;520;50.932;6.962;2022-07-06T10:11:50;21.50;60.80
1063;DHT22;520;50.932;6.962;2022-07-06T10:14:21;21.40;59.60
1063;DHT22;520;50.932;6.962;2022-07-06T10:16:49;21.30;60.60
1063;DHT22;520;50.932;6.962;2022-07-06T10:19:17;21.30;61.10
1063;DHT22;520;50.932;6.962;2022-07-06T10:21:45;21.60;60.50
1063;DHT22;520;50.932;6.962;2022-07-06T10:24:13;22.10;58.60
1063;DHT22;520;50.932;6.962;2022-07-06T10:26:41;21.80;58.60
1063;DHT22;520;50.932;6.962;2022-07-06T10:29:08;22.30;59.00
1063;DHT22;520;50.932;6.962;2022-07-06T10:31:38;23.20;57.60
1063;DHT22;520;50.932;6.962;2022-07-06T10:34:09;24.00;55.10
1063;DHT22;520;50.932;6.962;2022-07-06T10:36:43;23.90;55.10
1063;DHT22;520;50.932;6.962;2022-07-06T10:39:11;23.50;56.30
1063;DHT22;520;50.932;6.962;2022-07-06T10:42:00;23.40;56.40
1063;DHT22;520;50.932;6.962;2022-07-06T10:44:27;23.60;55.40
1063;DHT22;520;50.932;6.962;2022-07-06T10:46:58;23.80;54.40
1063;DHT22;520;50.932;6.962;2022-07-06T10:49:26;24.50;54.20
1063;DHT22;520;50.932;6.962;2022-07-06T10:52:16;24.90;51.20
1063;DHT22;520;50.932;6.962;2022-07-06T10:54:43;24.60;51.60
1063;DHT22;520;50.932;6.962;2022-07-06T10:57:11;24.30;51.70
1063;DHT22;520;50.932;6.962;2022-07-06T10:59:41;24.20;52.70
1063;DHT22;520;50.932;6.962;2022-07-06T11:02:40;23.70;52.00
1063;DHT22;520;50.932;6.962;2022-07-06T11:05:11;23.50;51.60
1063;DHT22;520;50.932;6.962;2022-07-06T11:07:49;23.60;51.90
1063;DHT22;520;50.932;6.962;2022-07-06T11:10:17;24.20;51.00
1063;DHT22;520;50.932;6.962;2022-07-06T11:12:46;24.30;50.20
1063;DHT22;520;50.932;6.962;2022-07-06T11:16:00;24.10;50.40
1063;DHT22;520;50.932;6.962;2022-07-06T11:18:20;24.00;50.00
1063;DHT22;520;50.932;6.962;2022-07-06T11:21:20;24.40;50.30
1063;DHT22;520;50.932;6.962;2022-07-06T11:23:48;24.60;49.70
1063;DHT22;520;50.932;6.962;2022-07-06T11:26:17;24.80;49.40
1063;DHT22;520;50.932;6.962;2022-07-06T11:28:47;25.30;48.40
1063;DHT22;520;50.932;6.962;2022-07-06T11:31:15;25.30;47.50
1063;DHT22;520;50.932;6.962;2022-07-06T11:33:45;25.30;45.40
1063;DHT22;520;50.932;6.962;2022-07-06T11:36:16;24.60;45.90
1063;DHT22;520;50.932;6.962;2022-07-06T11:38:44;24.50;46.50
1063;DHT22;520;50.932;6.962;2022-07-06T11:41:11;24.50;47.00
1063;DHT22;520;50.932;6.962;2022-07-06T11:43:41;24.70;46.60
1063;DHT22;520;50.932;6.962;2022-07-06T11:48:55;25.00;45.70
1063;DHT22;520;50.932;6.962;2022-07-06T11:51:27;24.70;46.70
1063;DHT22;520;50.932;6.962;2022-07-06T11:53:56;24.40;47.60
1063;DHT22;520;50.932;6.962;2022-07-06T11:56:24;24.20;48.40
1063;DHT22;520;50.932;6.962;2022-07-06T11:58:58;24.00;48.90
1063;DHT22;520;50.932;6.962;2022-07-06T12:01:27;23.70;49.40
1063;DHT22;520;50.932;6.962;2022-07-06T12:03:59;23.50;49.60
1063;DHT22;520;50.932;6.962;2022-07-06T12:06:27;23.60;49.70
1063;DHT22;520;50.932;6.962;2022-07-06T12:08:57;23.30;50.30
1063;DHT22;520;50.932;6.962;2022-07-06T12:11:32;23.30;50.60
1063;DHT22;520;50.932;6.962;2022-07-06T12:14:22;23.30;50.10
1063;DHT22;520;50.932;6.962;2022-07-06T12:16:50;23.60;50.40
1063;DHT22;520;50.932;6.962;2022-07-06T12:19:17;23.80;50.40
1063;DHT22;520;50.932;6.962;2022-07-06T12:21:48;24.00;50.00
1063;DHT22;520;50.932;6.962;2022-07-06T12:24:20;24.40;48.90
1063;DHT22;520;50.932;6.962;2022-07-06T12:26:48;24.60;48.60
1063;DHT22;520;50.932;6.962;2022-07-06T12:29:15;25.00;48.20
1063;DHT22;520;50.932;6.962;2022-07-06T12:31:55;24.70;48.80
1063;DHT22;520;50.932;6.962;2022-07-06T12:34:27;24.40;49.50
1063;DHT22;520;50.932;6.962;2022-07-06T12:36:55;24.20;48.60
1063;DHT22;520;50.932;6.962;2022-07-06T12:39:24;24.00;48.50
1063;DHT22;520;50.932;6.962;2022-07-06T12:42:00;24.00;48.50
1063;DHT22;520;50.932;6.962;2022-07-06T12:44:27;23.90;48.70
1063;DHT22;520;50.932;6.962;2022-07-06T12:47:15;23.90;48.80
1063;DHT22;520;50.932;6.962;2022-07-06T12:49:42;24.10;49.30
1063;DHT22;520;50.932;6.962;2022-07-06T12:52:13;24.30;48.80
1063;DHT22;520;50.932;6.962;2022-07-06T12:54:45;24.40;48.60
1063;DHT22;520;50.932;6.962;2022-07-06T12:57:17;24.40;49.00
1063;DHT22;520;50.932;6.962;2022-07-06T13:02:26;24.30;48.30
1063;DHT22;520;50.932;6.962;2022-07-06T13:05:14;24.30;49.30
1063;DHT22;520;50.932;6.962;2022-07-06T13:07:46;24.30;48.60
1063;DHT22;520;50.932;6.962;2022-07-06T13:10:14;23.90;48.20
1063;DHT22;520;50.932;6.962;2022-07-06T13:12:41;23.70;48.80
1063;DHT22;520;50.932;6.962;2022-07-06T13:15:09;23.80;48.60
1063;DHT22;520;50.932;6.962;2022-07-06T13:17:36;23.80;48.30
1063;DHT22;520;50.932;6.962;2022-07-06T13:22:41;23.80;48.00
1063;DHT22;520;50.932;6.962;2022-07-06T13:25:08;23.80;47.90
1063;DHT22;520;50.932;6.962;2022-07-06T13:27:35;23.80;48.30
1063;DHT22;520;50.932;6.962;2022-07-06T13:30:02;23.80;48.80
1063;DHT22;520;50.932;6.962;2022-07-06T13:32:29;23.70;48.40
1063;DHT22;520;50.932;6.962;2022-07-06T13:34:56;23.60;48.60
1063;DHT22;520;50.932;6.962;2022-07-06T13:37:22;23.90;48.60
1063;DHT22;520;50.932;6.962;2022-07-06T13:39:49;24.00;48.70
1063;DHT22;520;50.932;6.962;2022-07-06T13:42:16;24.00;48.30
1063;DHT22;520;50.932;6.962;2022-07-06T13:44:43;23.80;48.90
1063;DHT22;520;50.932;6.962;2022-07-06T13:47:10;23.70;49.20
1063;DHT22;520;50.932;6.962;2022-07-06T13:49:36;23.70;49.50
1063;DHT22;520;50.932;6.962;2022-07-06T13:52:03;23.70;48.90
1063;DHT22;520;50.932;6.962;2022-07-06T13:54:31;23.50;49.20
1063;DHT22;520;50.932;6.962;2022-07-06T13:57:01;23.60;49.20
1063;DHT22;520;50.932;6.962;2022-07-06T13:59:28;23.50;49.10
1063;DHT22;520;50.932;6.962;2022-07-06T14:01:54;23.60;49.30
1063;DHT22;520;50.932;6.962;2022-07-06T14:04:21;24.00;49.70
1063;DHT22;520;50.932;6.962;2022-07-06T14:06:48;24.20;49.10
1063;DHT22;520;50.932;6.962;2022-07-06T14:09:15;24.00;49.20
1063;DHT22;520;50.932;6.962;2022-07-06T14:11:41;24.30;48.80
1063;DHT22;520;50.932;6.962;2022-07-06T14:14:08;24.20;49.10
1063;DHT22;520;50.932;6.962;2022-07-06T14:16:35;24.20;49.10
1063;DHT22;520;50.932;6.962;2022-07-06T14:19:02;24.20;49.30
1063;DHT22;520;50.932;6.962;2022-07-06T14:21:29;24.20;49.20
1063;DHT22;520;50.932;6.962;2022-07-06T14:23:57;24.30;49.00
1063;DHT22;520;50.932;6.962;2022-07-06T14:26:24;24.60;48.00
1063;DHT22;520;50.932;6.962;2022-07-06T14:28:51;24.30;48.80
1063;DHT22;520;50.932;6.962;2022-07-06T14:31:18;24.30;48.90
1063;DHT22;520;50.932;6.962;2022-07-06T14:33:48;24.20;49.70
1063;DHT22;520;50.932;6.962;2022-07-06T14:36:15;24.10;49.00
1063;DHT22;520;50.932;6.962;2022-07-06T14:38:41;24.40;49.00
1063;DHT22;520;50.932;6.962;2022-07-06T14:41:10;24.50;49.30
1063;DHT22;520;50.932;6.962;2022-07-06T14:43:37;24.50;48.60
1063;DHT22;520;50.932;6.962;2022-07-06T14:46:04;24.40;48.60
1063;DHT22;520;50.932;6.962;2022-07-06T14:48:31;24.10;48.50
1063;DHT22;520;50.932;6.962;2022-07-06T14:50:58;23.90;48.90
1063;DHT22;520;50.932;6.962;2022-07-06T14:53:25;24.00;49.00
1063;DHT22;520;50.932;6.962;2022-07-06T14:55:53;24.00;49.00
1063;DHT22;520;50.932;6.962;2022-07-06T14:58:20;23.80;49.00
1063;DHT22;520;50.932;6.962;2022-07-06T15:00:53;23.70;48.70
1063;DHT22;520;50.932;6.962;2022-07-06T15:03:25;23.60;49.00
1063;DHT22;520;50.932;6.962;2022-07-06T15:05:52;23.80;49.10
1063;DHT22;520;50.932;6.962;2022-07-06T15:08:19;24.00;48.90
1063;DHT22;520;50.932;6.962;2022-07-06T15:10:46;23.90;48.60
1063;DHT22;520;50.932;6.962;2022-07-06T15:13:13;23.70;48.80
1063;DHT22;520;50.932;6.962;2022-07-06T15:15:40;23.60;48.90
1063;DHT22;520;50.932;6.962;2022-07-06T15:18:21;23.50;49.10
1063;DHT22;520;50.932;6.962;2022-07-06T15:20:48;23.50;49.30
1063;DHT22;520;50.932;6.962;2022-07-06T15:23:15;23.50;49.40
1063;DHT22;520;50.932;6.962;2022-07-06T15:25:41;23.70;49.40
1063;DHT22;520;50.932;6.962;2022-07-06T15:28:08;23.80;49.30
1063;DHT22;520;50.932;6.962;2022-07-06T15:30:35;23.70;49.00
1063;DHT22;520;50.932;6.962;2022-07-06T15:33:03;23.60;49.10
1063;DHT22;520;50.932;6.962;2022-07-06T15:35:29;23.90;48.90
1063;DHT22;520;50.932;6.962;2022-07-06T15:37:56;24.00;48.70
1063;DHT22;520;50.932;6.962;2022-07-06T15:40:24;24.00;48.80
1063;DHT22;520;50.932;6.962;2022-07-06T15:42:52;24.00;48.70
1063;DHT22;520;50.932;6.962;2022-07-06T15:45:22;23.90;48.90
1063;DHT22;520;50.932;6.962;2022-07-06T15:47:52;23.80;48.70
1063;DHT22;520;50.932;6.962;2022-07-06T15:50:18;23.90;48.80
1063;DHT22;520;50.932;6.962;2022-07-06T15:52:47;24.60;47.90
1063;DHT22;520;50.932;6.962;2022-07-06T15:55:14;24.60;47.70
1063;DHT22;520;50.932;6.962;2022-07-06T15:57:41;24.50;47.90
1063;DHT22;520;50.932;6.962;2022-07-06T16:00:08;24.40;47.60
1063;DHT22;520;50.932;6.962;2022-07-06T16:02:34;24.20;47.90
1063;DHT22;520;50.932;6.962;2022-07-06T16:05:01;24.20;48.10
1063;DHT22;520;50.932;6.962;2022-07-06T16:07:28;23.90;48.10
1063;DHT22;520;50.932;6.962;2022-07-06T16:10:15;23.90;48.60
1063;DHT22;520;50.932;6.962;2022-07-06T16:12:42;23.80;48.60
1063;DHT22;520;50.932;6.962;2022-07-06T16:15:08;23.90;48.70
1063;DHT22;520;50.932;6.962;2022-07-06T16:17:35;23.80;48.60
1063;DHT22;520;50.932;6.962;2022-07-06T16:20:03;23.80;48.80
1063;DHT22;520;50.932;6.962;2022-07-06T16:22:30;23.80;48.60
1063;DHT22;520;50.932;6.962;2022-07-06T16:24:57;24.00;49.00
1063;DHT22;520;50.932;6.962;2022-07-06T16:27:30;24.10;48.80
1063;DHT22;520;50.932;6.962;2022-07-06T16:29:58;24.20;48.30
1063;DHT22;520;50.932;6.962;2022-07-06T16:32:26;24.10;48.20
1063;DHT22;520;50.932;6.962;2022-07-06T16:34:52;24.30;48.20
1063;DHT22;520;50.932;6.962;2022-07-06T16:37:19;24.10;48.20